sensor_id;sensor_type;location;lat;lon;timestamp;pressure;altitude;pressure_sealevel;temperature;humidity
45991;BME280;31721;41.740;-88.000;2022-09-12T00:01:56;98582.37;;;15.93;63.65
45991;BME280;31721;41.740;-88.000;2022-09-12T00:04:24;98581.27;;;15.94;63.25
45991;BME280;31721;41.740;-88.000;2022-09-12T00:06:53;98579.30;;;15.74;63.91
45991;BME280;31721;41.740;-88.000;2022-09-12T00:09:21;98584.13;;;15.79;63.77
45991;BME280;31721;41.740;-88.000;2022-09-12T00:11:50;98588.10;;;15.84;63.67
45991;BME280;31721;41.740;-88.000;2022-09-12T00:14:18;98585.95;;;15.58;63.63
45991;BME280;31721;41.740;-88.000;2022-09-12T00:16:46;98586.47;;;15.27;63.92
45991;BME280;31721;41.740;-88.000;2022-09-12T00:19:14;98587.75;;;15.58;63.86
45991;BME280;31721;41.740;-88.000;2022-09-12T00:21:42;98585.35;;;15.75;63.56
45991;BME280;31721;41.740;-88.000;2022-09-12T00:24:10;98592.96;;;15.56;63.82
45991;BME280;31721;41.740;-88.000;2022-09-12T00:26:38;98593.47;;;15.46;63.82
45991;BME280;31721;41.740;-88.000;2022-09-12T00:29:06;98599.56;;;15.50;63.70
45991;BME280;31721;41.740;-88.000;2022-09-12T00:31:34;98604.97;;;15.61;63.35
45991;BME280;31721;41.740;-88.000;2022-09-12T00:34:03;98603.86;;;15.44;63.59
45991;BME280;31721;41.740;-88.000;2022-09-12T00:36:30;98606.08;;;15.55;63.52
45991;BME280;31721;41.740;-88.000;2022-09-12T00:38:58;98605.89;;;15.60;63.54
45991;BME280;31721;41.740;-88.000;2022-09-12T00:41:28;98610.20;;;15.50;63.45
45991;BME280;31721;41.740;-88.000;2022-09-12T00:43:58;98609.90;;;15.51;63.77
45991;BME280;31721;41.740;-88.000;2022-09-12T00:46:33;98607.36;;;15.53;63.32
45991;BME280;31721;41.740;-88.000;2022-09-12T00:49:05;98615.24;;;15.54;63.72
45991;BME280;31721;41.740;-88.000;2022-09-12T00:51:36;98614.91;;;15.39;63.49
45991;BME280;31721;41.740;-88.000;2022-09-12T00:54:07;98621.64;;;15.40;63.76
45991;BME280;31721;41.740;-88.000;2022-09-12T00:56:39;98617.50;;;15.57;63.14
45991;BME280;31721;41.740;-88.000;2022-09-12T00:59:12;98617.63;;;15.51;63.23
45991;BME280;31721;41.740;-88.000;2022-09-12T01:01:42;98619.85;;;15.56;63.17
45991;BME280;31721;41.740;-88.000;2022-09-12T01:04:13;98621.84;;;15.36;63.23
45991;BME280;31721;41.740;-88.000;2022-09-12T01:06:42;98621.89;;;15.25;63.04
45991;BME280;31721;41.740;-88.000;2022-09-12T01:09:14;98625.08;;;15.49;63.31
45991;BME280;31721;41.740;-88.000;2022-09-12T01:11:43;98626.12;;;15.41;63.14
45991;BME280;31721;41.740;-88.000;2022-09-12T01:14:13;98619.97;;;15.47;62.75
45991;BME280;31721;41.740;-88.000;2022-09-12T01:16:43;98617.76;;;15.44;62.38
45991;BME280;31721;41.740;-88.000;2022-09-12T01:19:27;98617.62;;;15.16;62.43
45991;BME280;31721;41.740;-88.000;2022-09-12T01:22:10;98620.45;;;15.31;62.82
45991;BME280;31721;41.740;-88.000;2022-09-12T01:24:54;98621.32;;;15.38;62.27
45991;BME280;31721;41.740;-88.000;2022-09-12T01:27:50;98628.39;;;15.40;62.39
45991;BME280;31721;41.740;-88.000;2022-09-12T01:30:38;98623.19;;;15.16;62.55
45991;BME280;31721;41.740;-88.000;2022-09-12T01:33:22;98622.59;;;15.44;61.94
45991;BME280;31721;41.740;-88.000;2022-09-12T01:36:03;98631.28;;;15.12;61.96
45991;BME280;31721;41.740;-88.000;2022-09-12T01:38:36;98627.37;;;15.24;62.50
45991;BME280;31721;41.740;-88.000;2022-09-12T01:41:12;98634.64;;;15.24;62.46
45991;BME280;31721;41.740;-88.000;2022-09-12T01:43:53;98637.92;;;15.33;62.26
45991;BME280;31721;41.740;-88.000;2022-09-12T01:46:29;98637.82;;;15.32;62.24
45991;BME280;31721;41.740;-88.000;2022-09-12T01:49:02;98637.39;;;15.24;62.43
45991;BME280;31721;41.740;-88.000;2022-09-12T01:51:37;98633.90;;;14.87;62.58
45991;BME280;31721;41.740;-88.000;2022-09-12T01:54:09;98640.53;;;14.72;62.69
45991;BME280;31721;41.740;-88.000;2022-09-12T01:56:41;98637.81;;;15.10;62.47
45991;BME280;31721;41.740;-88.000;2022-09-12T01:59:14;98634.05;;;15.10;62.56
45991;BME280;31721;41.740;-88.000;2022-09-12T02:01:46;98636.62;;;15.17;62.29
45991;BME280;31721;41.740;-88.000;2022-09-12T02:04:19;98632.29;;;15.27;62.55
45991;BME280;31721;41.740;-88.000;2022-09-12T02:06:53;98630.90;;;15.11;62.47
45991;BME280;31721;41.740;-88.000;2022-09-12T02:09:24;98632.68;;;15.19;62.16
45991;BME280;31721;41.740;-88.000;2022-09-12T02:11:57;98631.36;;;15.26;62.10
45991;BME280;31721;41.740;-88.000;2022-09-12T02:14:28;98634.59;;;14.99;62.09
45991;BME280;31721;41.740;-88.000;2022-09-12T02:17:00;98635.24;;;15.06;62.08
45991;BME280;31721;41.740;-88.000;2022-09-12T02:19:35;98636.00;;;15.01;61.57
45991;BME280;31721;41.740;-88.000;2022-09-12T02:22:04;98635.62;;;15.08;62.10
45991;BME280;31721;41.740;-88.000;2022-09-12T02:24:36;98636.87;;;15.16;61.98
45991;BME280;31721;41.740;-88.000;2022-09-12T02:27:09;98637.51;;;15.18;62.01
45991;BME280;31721;41.740;-88.000;2022-09-12T02:29:41;98634.13;;;15.14;62.06
45991;BME280;31721;41.740;-88.000;2022-09-12T02:32:14;98632.56;;;15.38;61.50
45991;BME280;31721;41.740;-88.000;2022-09-12T02:34:52;98624.90;;;15.23;61.73
45991;BME280;31721;41.740;-88.000;2022-09-12T02:37:27;98622.79;;;15.09;61.62
45991;BME280;31721;41.740;-88.000;2022-09-12T02:40:00;98623.74;;;15.27;61.63
45991;BME280;31721;41.740;-88.000;2022-09-12T02:42:28;98618.59;;;15.19;61.67
45991;BME280;31721;41.740;-88.000;2022-09-12T02:44:56;98617.35;;;15.25;61.74
45991;BME280;31721;41.740;-88.000;2022-09-12T02:47:28;98618.66;;;15.24;61.67
45991;BME280;31721;41.740;-88.000;2022-09-12T02:49:59;98618.06;;;15.10;61.79
45991;BME280;31721;41.740;-88.000;2022-09-12T02:52:28;98614.06;;;15.31;61.89
45991;BME280;31721;41.740;-88.000;2022-09-12T02:54:57;98614.29;;;15.29;61.80
45991;BME280;31721;41.740;-88.000;2022-09-12T02:57:25;98613.29;;;15.42;61.25
45991;BME280;31721;41.740;-88.000;2022-09-12T02:59:55;98610.32;;;15.21;61.02
45991;BME280;31721;41.740;-88.000;2022-09-12T03:02:31;98611.85;;;15.43;60.90
45991;BME280;31721;41.740;-88.000;2022-09-12T03:05:12;98612.76;;;15.25;61.06
45991;BME280;31721;41.740;-88.000;2022-09-12T03:08:59;98607.06;;;15.18;61.34
45991;BME280;31721;41.740;-88.000;2022-09-12T03:11:47;98611.89;;;15.16;61.36
45991;BME280;31721;41.740;-88.000;2022-09-12T03:14:31;98601.84;;;15.29;61.40
45991;BME280;31721;41.740;-88.000;2022-09-12T03:17:08;98603.30;;;15.41;61.15
45991;BME280;31721;41.740;-88.000;2022-09-12T03:19:51;98601.58;;;15.25;60.94
45991;BME280;31721;41.740;-88.000;2022-09-12T03:22:25;98601.16;;;15.11;61.15
45991;BME280;31721;41.740;-88.000;2022-09-12T03:25:04;98596.73;;;15.34;60.94
45991;BME280;31721;41.740;-88.000;2022-09-12T03:27:35;98595.11;;;15.34;61.05
45991;BME280;31721;41.740;-88.000;2022-09-12T03:30:05;98592.77;;;15.11;61.23
45991;BME280;31721;41.740;-88.000;2022-09-12T03:32:44;98595.47;;;15.21;61.21
45991;BME280;31721;41.740;-88.000;2022-09-12T03:35:13;98592.88;;;15.05;61.21
45991;BME280;31721;41.740;-88.000;2022-09-12T03:37:41;98596.30;;;15.02;61.13
45991;BME280;31721;41.740;-88.000;2022-09-12T03:40:10;98596.99;;;15.06;60.94
45991;BME280;31721;41.740;-88.000;2022-09-12T03:42:38;98591.95;;;15.24;60.34
45991;BME280;31721;41.740;-88.000;2022-09-12T03:45:07;98591.97;;;15.22;60.87
45991;BME280;31721;41.740;-88.000;2022-09-12T03:47:36;98593.18;;;15.03;60.93
45991;BME280;31721;41.740;-88.000;2022-09-12T03:50:05;98595.25;;;15.12;61.19
45991;BME280;31721;41.740;-88.000;2022-09-12T03:52:33;98599.42;;;15.35;60.84
45991;BME280;31721;41.740;-88.000;2022-09-12T03:55:02;98597.76;;;15.24;60.71
45991;BME280;31721;41.740;-88.000;2022-09-12T03:57:30;98596.85;;;15.37;60.10
45991;BME280;31721;41.740;-88.000;2022-09-12T03:59:58;98599.76;;;15.26;60.14
45991;BME280;31721;41.740;-88.000;2022-09-12T04:02:25;98598.59;;;15.43;59.79
45991;BME280;31721;41.740;-88.000;2022-09-12T04:04:53;98600.01;;;15.23;60.27
45991;BME280;31721;41.740;-88.000;2022-09-12T04:07:22;98597.01;;;15.29;60.12
45991;BME280;31721;41.740;-88.000;2022-09-12T04:09:49;98603.28;;;15.19;60.36
45991;BME280;31721;41.740;-88.000;2022-09-12T04:12:17;98599.67;;;15.09;60.45
45991;BME280;31721;41.740;-88.000;2022-09-12T04:14:45;98600.83;;;14.87;60.68
45991;BME280;31721;41.740;-88.000;2022-09-12T04:17:13;98599.47;;;15.16;60.19
45991;BME280;31721;41.740;-88.000;2022-09-12T04:19:40;98603.81;;;14.87;60.29
45991;BME280;31721;41.740;-88.000;2022-09-12T04:22:09;98599.95;;;15.01;59.92
45991;BME280;31721;41.740;-88.000;2022-09-12T04:24:36;98601.98;;;15.14;59.55
45991;BME280;31721;41.740;-88.000;2022-09-12T04:27:05;98595.74;;;15.28;59.15
45991;BME280;31721;41.740;-88.000;2022-09-12T04:29:32;98597.74;;;15.03;59.56
45991;BME280;31721;41.740;-88.000;2022-09-12T04:32:01;98593.93;;;15.16;59.27
45991;BME280;31721;41.740;-88.000;2022-09-12T04:34:30;98597.73;;;14.99;59.64
45991;BME280;31721;41.740;-88.000;2022-09-12T04:36:58;98595.91;;;15.10;59.26
45991;BME280;31721;41.740;-88.000;2022-09-12T04:39:26;98593.52;;;14.90;59.62
45991;BME280;31721;41.740;-88.000;2022-09-12T04:41:54;98593.92;;;14.98;59.39
45991;BME280;31721;41.740;-88.000;2022-09-12T04:44:22;98590.20;;;15.23;58.74
45991;BME280;31721;41.740;-88.000;2022-09-12T04:46:50;98587.42;;;15.00;59.16
45991;BME280;31721;41.740;-88.000;2022-09-12T04:49:18;98588.16;;;14.91;59.44
45991;BME280;31721;41.740;-88.000;2022-09-12T04:51:46;98585.03;;;14.91;59.30
45991;BME280;31721;41.740;-88.000;2022-09-12T04:54:15;98581.80;;;14.90;59.38
45991;BME280;31721;41.740;-88.000;2022-09-12T04:56:45;98584.57;;;15.03;58.83
45991;BME280;31721;41.740;-88.000;2022-09-12T04:59:14;98582.22;;;14.98;58.87
45991;BME280;31721;41.740;-88.000;2022-09-12T05:01:44;98585.38;;;14.98;58.76
45991;BME280;31721;41.740;-88.000;2022-09-12T05:04:12;98586.51;;;14.97;58.81
45991;BME280;31721;41.740;-88.000;2022-09-12T05:06:41;98582.17;;;14.84;58.64
45991;BME280;31721;41.740;-88.000;2022-09-12T05:09:11;98581.28;;;15.00;58.65
45991;BME280;31721;41.740;-88.000;2022-09-12T05:11:41;98581.65;;;15.02;58.43
45991;BME280;31721;41.740;-88.000;2022-09-12T05:14:10;98582.51;;;15.24;58.39
45991;BME280;31721;41.740;-88.000;2022-09-12T05:16:38;98581.51;;;15.12;57.95
45991;BME280;31721;41.740;-88.000;2022-09-12T05:19:08;98581.92;;;14.99;58.36
45991;BME280;31721;41.740;-88.000;2022-09-12T05:21:37;98580.50;;;15.03;58.08
45991;BME280;31721;41.740;-88.000;2022-09-12T05:24:05;98583.14;;;15.05;58.11
45991;BME280;31721;41.740;-88.000;2022-09-12T05:26:33;98578.87;;;14.82;58.48
45991;BME280;31721;41.740;-88.000;2022-09-12T05:29:03;98576.60;;;14.84;58.50
45991;BME280;31721;41.740;-88.000;2022-09-12T05:31:31;98579.40;;;14.93;58.22
45991;BME280;31721;41.740;-88.000;2022-09-12T05:33:59;98581.42;;;14.88;58.50
45991;BME280;31721;41.740;-88.000;2022-09-12T05:36:28;98580.23;;;15.23;57.77
45991;BME280;31721;41.740;-88.000;2022-09-12T05:38:57;98580.07;;;14.81;58.38
45991;BME280;31721;41.740;-88.000;2022-09-12T05:41:27;98577.87;;;14.73;58.46
45991;BME280;31721;41.740;-88.000;2022-09-12T05:43:57;98577.24;;;14.55;58.80
45991;BME280;31721;41.740;-88.000;2022-09-12T05:46:27;98575.62;;;14.62;59.14
45991;BME280;31721;41.740;-88.000;2022-09-12T05:48:55;98572.05;;;14.37;59.21
45991;BME280;31721;41.740;-88.000;2022-09-12T05:51:25;98569.29;;;14.54;59.15
45991;BME280;31721;41.740;-88.000;2022-09-12T05:53:54;98568.81;;;14.66;58.78
45991;BME280;31721;41.740;-88.000;2022-09-12T05:56:24;98567.73;;;14.35;59.37
45991;BME280;31721;41.740;-88.000;2022-09-12T05:58:54;98562.61;;;14.37;59.53
45991;BME280;31721;41.740;-88.000;2022-09-12T06:01:21;98562.28;;;14.41;59.33
45991;BME280;31721;41.740;-88.000;2022-09-12T06:03:50;98567.40;;;14.54;59.08
45991;BME280;31721;41.740;-88.000;2022-09-12T06:06:20;98562.17;;;14.65;58.77
45991;BME280;31721;41.740;-88.000;2022-09-12T06:08:50;98557.14;;;14.73;58.41
45991;BME280;31721;41.740;-88.000;2022-09-12T06:11:20;98559.63;;;14.67;58.40
45991;BME280;31721;41.740;-88.000;2022-09-12T06:13:49;98555.54;;;15.06;57.72
45991;BME280;31721;41.740;-88.000;2022-09-12T06:16:18;98554.21;;;14.79;58.18
45991;BME280;31721;41.740;-88.000;2022-09-12T06:18:47;98552.62;;;14.61;58.03
45991;BME280;31721;41.740;-88.000;2022-09-12T06:21:16;98544.72;;;14.40;58.39
45991;BME280;31721;41.740;-88.000;2022-09-12T06:23:45;98543.00;;;14.73;58.25
45991;BME280;31721;41.740;-88.000;2022-09-12T06:26:15;98540.46;;;14.82;57.86
45991;BME280;31721;41.740;-88.000;2022-09-12T06:28:43;98536.86;;;14.59;58.04
45991;BME280;31721;41.740;-88.000;2022-09-12T06:31:13;98531.82;;;14.53;58.57
45991;BME280;31721;41.740;-88.000;2022-09-12T06:33:43;98532.49;;;14.60;58.39
45991;BME280;31721;41.740;-88.000;2022-09-12T06:36:13;98527.69;;;14.72;58.20
45991;BME280;31721;41.740;-88.000;2022-09-12T06:38:41;98523.60;;;14.66;58.12
45991;BME280;31721;41.740;-88.000;2022-09-12T06:41:10;98522.42;;;14.93;57.89
45991;BME280;31721;41.740;-88.000;2022-09-12T06:43:39;98512.85;;;14.61;58.46
45991;BME280;31721;41.740;-88.000;2022-09-12T06:46:07;98512.17;;;14.56;58.62
45991;BME280;31721;41.740;-88.000;2022-09-12T06:48:36;98506.64;;;14.61;58.43
45991;BME280;31721;41.740;-88.000;2022-09-12T06:51:05;98503.34;;;14.42;59.04
45991;BME280;31721;41.740;-88.000;2022-09-12T06:53:34;98499.56;;;14.49;58.95
45991;BME280;31721;41.740;-88.000;2022-09-12T06:56:04;98496.58;;;14.48;58.75
45991;BME280;31721;41.740;-88.000;2022-09-12T06:58:32;98490.49;;;14.82;58.46
45991;BME280;31721;41.740;-88.000;2022-09-12T07:01:01;98490.49;;;14.60;58.91
45991;BME280;31721;41.740;-88.000;2022-09-12T07:03:29;98484.47;;;14.49;59.13
45991;BME280;31721;41.740;-88.000;2022-09-12T07:06:01;98481.45;;;14.48;59.24
45991;BME280;31721;41.740;-88.000;2022-09-12T07:08:29;98479.05;;;14.52;59.33
45991;BME280;31721;41.740;-88.000;2022-09-12T07:10:58;98475.86;;;14.29;59.62
45991;BME280;31721;41.740;-88.000;2022-09-12T07:13:25;98472.76;;;14.44;59.45
45991;BME280;31721;41.740;-88.000;2022-09-12T07:15:53;98469.92;;;14.35;59.65
45991;BME280;31721;41.740;-88.000;2022-09-12T07:18:21;98470.64;;;14.44;59.62
45991;BME280;31721;41.740;-88.000;2022-09-12T07:20:49;98468.71;;;14.56;59.25
45991;BME280;31721;41.740;-88.000;2022-09-12T07:23:17;98465.53;;;14.71;59.07
45991;BME280;31721;41.740;-88.000;2022-09-12T07:25:51;98462.25;;;14.69;59.05
45991;BME280;31721;41.740;-88.000;2022-09-12T07:28:19;98462.08;;;14.71;59.23
45991;BME280;31721;41.740;-88.000;2022-09-12T07:30:47;98462.20;;;14.85;58.83
45991;BME280;31721;41.740;-88.000;2022-09-12T07:33:15;98459.91;;;14.73;59.15
45991;BME280;31721;41.740;-88.000;2022-09-12T07:35:42;98459.47;;;14.62;58.90
45991;BME280;31721;41.740;-88.000;2022-09-12T07:38:10;98458.41;;;14.64;59.26
45991;BME280;31721;41.740;-88.000;2022-09-12T07:40:38;98454.40;;;14.64;59.26
45991;BME280;31721;41.740;-88.000;2022-09-12T07:43:06;98456.30;;;14.68;59.19
45991;BME280;31721;41.740;-88.000;2022-09-12T07:45:34;98452.52;;;14.73;59.26
45991;BME280;31721;41.740;-88.000;2022-09-12T07:48:03;98451.16;;;14.71;59.55
45991;BME280;31721;41.740;-88.000;2022-09-12T07:50:30;98448.31;;;14.71;59.39
45991;BME280;31721;41.740;-88.000;2022-09-12T07:52:58;98446.44;;;14.72;59.58
45991;BME280;31721;41.740;-88.000;2022-09-12T07:55:26;98444.22;;;14.76;59.35
45991;BME280;31721;41.740;-88.000;2022-09-12T07:57:54;98437.09;;;14.60;59.39
45991;BME280;31721;41.740;-88.000;2022-09-12T08:00:22;98434.14;;;14.55;59.33
45991;BME280;31721;41.740;-88.000;2022-09-12T08:02:50;98432.04;;;14.74;59.05
45991;BME280;31721;41.740;-88.000;2022-09-12T08:05:18;98427.52;;;14.64;58.92
45991;BME280;31721;41.740;-88.000;2022-09-12T08:07:46;98424.06;;;14.77;59.05
45991;BME280;31721;41.740;-88.000;2022-09-12T08:10:14;98422.73;;;14.48;59.53
45991;BME280;31721;41.740;-88.000;2022-09-12T08:12:42;98421.36;;;14.37;59.72
45991;BME280;31721;41.740;-88.000;2022-09-12T08:15:10;98415.05;;;14.47;59.60
45991;BME280;31721;41.740;-88.000;2022-09-12T08:17:38;98420.06;;;14.25;59.91
45991;BME280;31721;41.740;-88.000;2022-09-12T08:20:06;98417.83;;;14.47;59.61
45991;BME280;31721;41.740;-88.000;2022-09-12T08:22:34;98416.27;;;14.44;59.63
45991;BME280;31721;41.740;-88.000;2022-09-12T08:25:03;98418.39;;;14.36;59.77
45991;BME280;31721;41.740;-88.000;2022-09-12T08:27:31;98413.96;;;14.44;59.58
45991;BME280;31721;41.740;-88.000;2022-09-12T08:29:59;98420.93;;;14.45;59.89
45991;BME280;31721;41.740;-88.000;2022-09-12T08:32:27;98421.85;;;14.37;59.59
45991;BME280;31721;41.740;-88.000;2022-09-12T08:34:55;98421.81;;;14.46;59.85
45991;BME280;31721;41.740;-88.000;2022-09-12T08:37:23;98419.15;;;14.30;60.15
45991;BME280;31721;41.740;-88.000;2022-09-12T08:39:51;98413.02;;;14.39;59.95
45991;BME280;31721;41.740;-88.000;2022-09-12T08:42:24;98417.22;;;14.40;59.79
45991;BME280;31721;41.740;-88.000;2022-09-12T08:45:05;98417.42;;;14.33;59.76
45991;BME280;31721;41.740;-88.000;2022-09-12T08:47:38;98412.58;;;14.06;59.90
45991;BME280;31721;41.740;-88.000;2022-09-12T08:50:14;98412.44;;;14.25;59.73
45991;BME280;31721;41.740;-88.000;2022-09-12T08:52:49;98409.03;;;14.27;59.68
45991;BME280;31721;41.740;-88.000;2022-09-12T08:55:26;98407.75;;;14.18;59.69
45991;BME280;31721;41.740;-88.000;2022-09-12T08:57:55;98404.82;;;14.29;59.75
45991;BME280;31721;41.740;-88.000;2022-09-12T09:00:25;98406.46;;;14.25;59.73
45991;BME280;31721;41.740;-88.000;2022-09-12T09:03:08;98404.22;;;14.29;59.45
45991;BME280;31721;41.740;-88.000;2022-09-12T09:05:47;98405.74;;;14.39;59.11
45991;BME280;31721;41.740;-88.000;2022-09-12T09:08:28;98403.65;;;14.24;58.89
45991;BME280;31721;41.740;-88.000;2022-09-12T09:11:04;98401.06;;;14.64;58.15
45991;BME280;31721;41.740;-88.000;2022-09-12T09:13:46;98401.05;;;14.56;57.86
45991;BME280;31721;41.740;-88.000;2022-09-12T09:16:23;98396.66;;;14.41;58.21
45991;BME280;31721;41.740;-88.000;2022-09-12T09:18:54;98396.43;;;14.44;57.74
45991;BME280;31721;41.740;-88.000;2022-09-12T09:21:28;98398.44;;;14.42;57.53
45991;BME280;31721;41.740;-88.000;2022-09-12T09:24:02;98397.25;;;14.63;57.45
45991;BME280;31721;41.740;-88.000;2022-09-12T09:26:39;98394.91;;;14.24;58.30
45991;BME280;31721;41.740;-88.000;2022-09-12T09:29:15;98389.95;;;14.26;58.34
45991;BME280;31721;41.740;-88.000;2022-09-12T09:31:47;98392.41;;;14.21;58.62
45991;BME280;31721;41.740;-88.000;2022-09-12T09:34:19;98387.78;;;14.21;59.11
45991;BME280;31721;41.740;-88.000;2022-09-12T09:36:50;98385.93;;;14.24;59.51
45991;BME280;31721;41.740;-88.000;2022-09-12T09:39:36;98383.89;;;14.24;59.79
45991;BME280;31721;41.740;-88.000;2022-09-12T09:42:20;98378.47;;;14.51;59.71
45991;BME280;31721;41.740;-88.000;2022-09-12T09:44:56;98375.97;;;14.25;60.19
45991;BME280;31721;41.740;-88.000;2022-09-12T09:47:25;98372.69;;;13.98;60.58
45991;BME280;31721;41.740;-88.000;2022-09-12T09:49:53;98369.58;;;14.17;60.65
45991;BME280;31721;41.740;-88.000;2022-09-12T09:52:25;98365.47;;;13.91;60.93
45991;BME280;31721;41.740;-88.000;2022-09-12T09:54:57;98365.15;;;13.53;61.64
45991;BME280;31721;41.740;-88.000;2022-09-12T09:57:43;98363.44;;;13.44;61.57
45991;BME280;31721;41.740;-88.000;2022-09-12T10:00:29;98363.40;;;13.27;60.82
45991;BME280;31721;41.740;-88.000;2022-09-12T10:03:01;98364.60;;;13.23;61.33
45991;BME280;31721;41.740;-88.000;2022-09-12T10:05:31;98363.07;;;13.36;61.14
45991;BME280;31721;41.740;-88.000;2022-09-12T10:07:59;98367.71;;;13.53;61.07
45991;BME280;31721;41.740;-88.000;2022-09-12T10:10:27;98364.42;;;13.23;61.12
45991;BME280;31721;41.740;-88.000;2022-09-12T10:13:07;98362.66;;;13.30;61.22
45991;BME280;31721;41.740;-88.000;2022-09-12T10:15:35;98361.29;;;13.35;61.04
45991;BME280;31721;41.740;-88.000;2022-09-12T10:18:03;98363.80;;;13.23;61.22
45991;BME280;31721;41.740;-88.000;2022-09-12T10:20:34;98354.78;;;13.38;61.14
45991;BME280;31721;41.740;-88.000;2022-09-12T10:23:22;98355.57;;;13.31;61.21
45991;BME280;31721;41.740;-88.000;2022-09-12T10:25:58;98350.71;;;13.46;60.98
45991;BME280;31721;41.740;-88.000;2022-09-12T10:28:33;98347.61;;;13.43;60.86
45991;BME280;31721;41.740;-88.000;2022-09-12T10:31:02;98335.96;;;13.35;61.15
45991;BME280;31721;41.740;-88.000;2022-09-12T10:33:34;98337.11;;;13.27;61.12
45991;BME280;31721;41.740;-88.000;2022-09-12T10:36:06;98333.12;;;13.39;61.00
45991;BME280;31721;41.740;-88.000;2022-09-12T10:38:34;98328.12;;;13.37;60.87
45991;BME280;31721;41.740;-88.000;2022-09-12T10:41:04;98331.73;;;13.23;61.38
45991;BME280;31721;41.740;-88.000;2022-09-12T10:43:36;98329.49;;;13.61;60.90
45991;BME280;31721;41.740;-88.000;2022-09-12T10:46:22;98329.72;;;13.29;61.16
45991;BME280;31721;41.740;-88.000;2022-09-12T10:48:51;98329.99;;;13.26;61.72
45991;BME280;31721;41.740;-88.000;2022-09-12T10:51:38;98326.39;;;13.52;61.41
45991;BME280;31721;41.740;-88.000;2022-09-12T10:54:09;98325.06;;;13.20;61.60
45991;BME280;31721;41.740;-88.000;2022-09-12T10:56:43;98326.30;;;13.16;62.18
45991;BME280;31721;41.740;-88.000;2022-09-12T10:59:24;98324.92;;;13.25;62.00
45991;BME280;31721;41.740;-88.000;2022-09-12T11:01:59;98322.15;;;13.23;62.08
45991;BME280;31721;41.740;-88.000;2022-09-12T11:04:37;98322.53;;;13.29;62.44
45991;BME280;31721;41.740;-88.000;2022-09-12T11:07:24;98316.50;;;13.34;62.53
45991;BME280;31721;41.740;-88.000;2022-09-12T11:10:05;98319.83;;;13.22;62.48
45991;BME280;31721;41.740;-88.000;2022-09-12T11:12:42;98314.42;;;13.28;63.06
45991;BME280;31721;41.740;-88.000;2022-09-12T11:15:43;98314.00;;;13.09;63.17
45991;BME280;31721;41.740;-88.000;2022-09-12T11:18:26;98309.81;;;12.94;63.35
45991;BME280;31721;41.740;-88.000;2022-09-12T11:21:09;98303.43;;;12.92;63.78
45991;BME280;31721;41.740;-88.000;2022-09-12T11:24:11;98300.52;;;13.00;63.67
45991;BME280;31721;41.740;-88.000;2022-09-12T11:26:54;98305.56;;;13.04;63.47
45991;BME280;31721;41.740;-88.000;2022-09-12T11:29:35;98302.93;;;13.02;63.83
45991;BME280;31721;41.740;-88.000;2022-09-12T11:32:31;98300.80;;;12.87;64.08
45991;BME280;31721;41.740;-88.000;2022-09-12T11:35:08;98299.32;;;13.16;64.17
45991;BME280;31721;41.740;-88.000;2022-09-12T11:37:52;98299.94;;;13.08;63.81
45991;BME280;31721;41.740;-88.000;2022-09-12T11:40:28;98304.80;;;13.02;64.01
45991;BME280;31721;41.740;-88.000;2022-09-12T11:43:04;98302.74;;;12.90;64.37
45991;BME280;31721;41.740;-88.000;2022-09-12T11:45:40;98307.94;;;12.85;64.12
45991;BME280;31721;41.740;-88.000;2022-09-12T11:48:15;98306.64;;;12.77;64.36
45991;BME280;31721;41.740;-88.000;2022-09-12T11:50:46;98309.17;;;12.99;64.61
45991;BME280;31721;41.740;-88.000;2022-09-12T11:53:18;98309.08;;;12.87;64.62
45991;BME280;31721;41.740;-88.000;2022-09-12T11:55:54;98308.55;;;12.65;64.57
45991;BME280;31721;41.740;-88.000;2022-09-12T11:58:26;98307.73;;;12.81;64.72
45991;BME280;31721;41.740;-88.000;2022-09-12T12:00:58;98304.86;;;12.85;64.43
45991;BME280;31721;41.740;-88.000;2022-09-12T12:03:33;98300.92;;;12.97;64.24
45991;BME280;31721;41.740;-88.000;2022-09-12T12:06:09;98297.26;;;12.76;64.12
45991;BME280;31721;41.740;-88.000;2022-09-12T12:08:40;98304.78;;;12.67;64.60
45991;BME280;31721;41.740;-88.000;2022-09-12T12:11:09;98300.18;;;12.62;64.37
45991;BME280;31721;41.740;-88.000;2022-09-12T12:13:45;98304.99;;;12.95;64.32
45991;BME280;31721;41.740;-88.000;2022-09-12T12:16:19;98301.10;;;12.55;65.16
45991;BME280;31721;41.740;-88.000;2022-09-12T12:18:53;98302.98;;;12.57;65.04
45991;BME280;31721;41.740;-88.000;2022-09-12T12:21:34;98292.68;;;12.60;64.97
45991;BME280;31721;41.740;-88.000;2022-09-12T12:24:14;98293.24;;;12.51;65.46
45991;BME280;31721;41.740;-88.000;2022-09-12T12:26:53;98285.91;;;12.52;65.98
45991;BME280;31721;41.740;-88.000;2022-09-12T12:29:37;98284.49;;;12.42;65.77
45991;BME280;31721;41.740;-88.000;2022-09-12T12:32:23;98276.12;;;12.31;65.92
45991;BME280;31721;41.740;-88.000;2022-09-12T12:35:02;98275.14;;;12.24;65.77
45991;BME280;31721;41.740;-88.000;2022-09-12T12:38:00;98262.76;;;12.41;66.53
45991;BME280;31721;41.740;-88.000;2022-09-12T12:40:29;98253.13;;;12.23;66.57
45991;BME280;31721;41.740;-88.000;2022-09-12T12:43:02;98258.70;;;12.53;66.52
45991;BME280;31721;41.740;-88.000;2022-09-12T12:46:05;98260.01;;;12.56;66.81
45991;BME280;31721;41.740;-88.000;2022-09-12T12:48:45;98263.96;;;12.03;67.17
45991;BME280;31721;41.740;-88.000;2022-09-12T12:51:22;98258.06;;;12.18;67.05
45991;BME280;31721;41.740;-88.000;2022-09-12T12:53:53;98261.24;;;12.32;67.09
45991;BME280;31721;41.740;-88.000;2022-09-12T12:56:31;98258.37;;;12.19;67.14
45991;BME280;31721;41.740;-88.000;2022-09-12T12:59:02;98259.07;;;12.50;66.57
45991;BME280;31721;41.740;-88.000;2022-09-12T13:01:31;98257.86;;;12.43;66.81
45991;BME280;31721;41.740;-88.000;2022-09-12T13:04:02;98261.35;;;12.25;67.04
45991;BME280;31721;41.740;-88.000;2022-09-12T13:06:35;98257.25;;;12.39;67.14
45991;BME280;31721;41.740;-88.000;2022-09-12T13:09:06;98257.01;;;12.35;67.33